Terminal Aerodrome Forecast
Issued by NWS Charleston, WV

Current Version | Previous Version | Graphics & Text | Print | Product List | Glossary On
Versions: 1 2 3 4 5 6 7 8 9 10 11 12 13 14 15 16 17 18 19 20 21 22 23 24 25 26 27
000
FTUS41 KRLX 230200 AAA
TAFBKW
TAF AMD
KBKW 230220Z 2302/2324 28010G20KT P6SM BKN035
     FM230600 30008G17KT P6SM SCT045
     FM230700 30008KT P6SM SCT250
     FM231500 29012G23KT P6SM SCT040=

USA.gov is the U.S. government's official web portal to all federal, state and local government web resources and services.